Time;durP1;ratioP1;P1;durP2;ratioP2;P2;SDS_P1;SDS_P2;PMS_P1;PMS_P2;Temp;Humidity;BMP_temperature;BMP_pressure;BME280_temperature;BME280_humidity;BME280_pressure;Samples;Min_cycle;Max_cycle;Signal;HPM_P1;HPM_P2
2022/06/23 00:00:40;;;;;;;10.93;4.10;;;;;;;13.26;59.27;98573.13;1331205;87;21101;-70
2022/06/23 00:02:41;;;;;;;6.20;3.58;;;;;;;13.24;59.31;98569.74;1328196;87;21048;-71
2022/06/23 00:04:45;;;;;;;6.87;3.37;;;;;;;13.23;59.37;98574.66;1330164;88;80880;-71
2022/06/23 00:06:56;;;;;;;8.63;3.40;;;;;;;13.21;59.46;98570.78;1330242;87;21020;-71
2022/06/23 00:08:57;;;;;;;6.97;3.52;;;;;;;13.19;59.59;98573.16;1329546;87;22689;-71
2022/06/23 00:11:00;;;;;;;7.42;3.70;;;;;;;13.13;59.58;98575.73;1344167;83;80706;-71
2022/06/23 00:13:03;;;;;;;4.35;3.58;;;;;;;13.10;59.66;98573.30;1412984;81;21060;-71
2022/06/23 00:15:08;;;;;;;5.08;3.70;;;;;;;13.07;59.73;98570.82;1428745;81;21030;-71
2022/06/23 00:17:27;;;;;;;5.90;3.35;;;;;;;13.00;59.79;98566.43;1426845;81;80620;-71
2022/06/23 00:19:29;;;;;;;7.10;3.70;;;;;;;12.97;59.93;98569.25;1427406;81;20999;-71
2022/06/23 00:21:31;;;;;;;;;;;;;;;12.96;60.04;98562.28;1431043;81;21001;-71
2022/06/23 00:23:36;;;;;;;4.05;3.45;;;;;;;12.96;60.28;98566.25;1425876;81;66899;-70
2022/06/23 00:25:47;;;;;;;5.30;3.58;;;;;;;12.93;60.15;98561.14;1429540;81;20986;-71
2022/06/23 00:27:48;;;;;;;8.50;3.83;;;;;;;12.95;60.21;98560.58;1427160;81;21029;-70
2022/06/23 00:29:49;;;;;;;;;;;;;;;12.97;60.26;98562.64;1428707;82;80523;-71
2022/06/23 00:31:56;;;;;;;5.65;3.58;;;;;;;12.97;60.45;98565.77;1428259;81;20433;-71
2022/06/23 00:34:00;;;;;;;4.12;3.20;;;;;;;12.94;60.33;98560.20;1427040;81;21570;-71
2022/06/23 00:36:01;;;;;;;7.22;3.85;;;;;;;12.92;60.30;98562.11;1428522;81;22216;-71
2022/06/23 00:38:03;;;;;;;5.55;3.25;;;;;;;12.91;60.34;98557.27;1429230;81;20997;-72
2022/06/23 00:40:10;;;;;;;7.45;3.60;;;;;;;12.92;60.39;98562.11;1426001;81;81925;-71
2022/06/23 00:42:24;;;;;;;4.20;3.30;;;;;;;12.90;60.42;98560.02;1427339;81;21072;-71
2022/06/23 00:44:34;;;;;;;7.22;3.65;;;;;;;12.86;60.48;98555.88;1427355;81;21496;-72
2022/06/23 00:46:48;;;;;;;9.03;3.80;;;;;;;12.86;60.54;98559.84;1427030;82;81523;-71
2022/06/23 00:48:52;;;;;;;9.90;3.72;;;;;;;12.85;60.57;98554.17;1427868;81;21002;-72
2022/06/23 00:51:09;;;;;;;8.38;3.75;;;;;;;12.86;60.56;98554.55;1427363;81;21041;-72
2022/06/23 00:53:19;;;;;;;5.15;3.37;;;;;;;12.83;60.64;98554.75;1424799;81;80864;-71
2022/06/23 00:55:24;;;;;;;9.63;3.85;;;;;;;12.77;60.72;98550.23;1427753;81;21059;-71
2022/06/23 00:57:37;;;;;;;4.42;3.60;;;;;;;12.69;60.78;98551.19;1426628;81;20967;-71
2022/06/23 01:00:01;;;;;;;8.88;3.58;;;;;;;12.64;60.88;98550.66;1425909;81;81413;-71
2022/06/23 01:02:21;;;;;;;5.08;3.77;;;;;;;12.63;60.92;98551.59;1428165;81;20988;-71
2022/06/23 01:04:34;;;;;;;3.70;3.05;;;;;;;12.62;61.00;98545.09;1427836;81;80535;-71
2022/06/23 01:06:39;;;;;;;14.38;3.92;;;;;;;12.63;61.02;98551.59;1427904;81;20970;-71
2022/06/23 01:08:58;;;;;;;10.28;4.03;;;;;;;12.65;61.05;98546.20;1426729;81;21079;-71
2022/06/23 01:11:09;;;;;;;4.37;3.55;;;;;;;12.65;61.12;98544.88;1424409;82;80771;-70
2022/06/23 01:13:25;;;;;;;4.62;3.77;;;;;;;12.65;61.10;98544.40;1438617;80;21539;-70
2022/06/23 01:15:45;;;;;;;10.00;4.10;;;;;;;12.66;61.16;98544.78;1418779;82;21026;-72
2022/06/23 01:17:56;;;;;;;9.35;3.70;;;;;;;12.65;61.21;98544.40;1394184;83;81416;-71
2022/06/23 01:20:04;;;;;;;3.98;3.60;;;;;;;12.59;61.24;98544.80;1395953;83;21035;-71
2022/06/23 01:22:09;;;;;;;6.28;3.87;;;;;;;12.51;61.30;98550.56;1382679;84;80693;-71
2022/06/23 01:24:26;;;;;;;12.60;3.98;;;;;;;12.45;61.35;98550.97;1448867;80;21507;-71
2022/06/23 01:26:30;;;;;;;5.72;3.75;;;;;;;12.43;61.43;98553.70;1449285;80;20999;-71
2022/06/23 01:28:38;;;;;;;7.60;3.55;;;;;;;12.42;61.47;98559.93;1445520;80;81476;-70
2022/06/23 01:31:05;;;;;;;12.23;3.72;;;;;;;12.37;61.49;98550.59;1449581;80;21122;-70
2022/06/23 01:33:14;;;;;;;12.75;4.03;;;;;;;12.36;61.60;98550.20;1447541;80;21020;-71
2022/06/23 01:35:24;;;;;;;4.28;3.87;;;;;;;12.32;61.75;98553.50;1447472;81;81681;-71
2022/06/23 01:37:29;;;;;;;12.98;3.98;;;;;;;12.27;61.78;98556.92;1447409;80;21032;-71
2022/06/23 01:39:42;;;;;;;3.80;3.33;;;;;;;12.27;61.92;98566.17;1449418;80;21074;-71
2022/06/23 01:41:47;;;;;;;7.65;3.70;;;;;;;12.25;61.89;98564.95;1427118;81;81424;-71
2022/06/23 01:43:58;;;;;;;7.97;3.65;;;;;;;12.22;61.88;98559.00;1399192;83;21068;-71
2022/06/23 01:46:04;;;;;;;4.80;3.80;;;;;;;12.22;62.01;98565.60;1398689;82;21043;-71
2022/06/23 01:48:15;;;;;;;3.95;3.60;;;;;;;12.19;62.01;98562.67;1375878;85;21044;-71
2022/06/23 01:50:31;;;;;;;4.83;3.22;;;;;;;12.13;62.14;98556.91;1400255;83;21084;-71
2022/06/23 01:52:33;;;;;;;4.05;3.47;;;;;;;12.15;62.16;98568.25;1321855;87;80815;-71
2022/06/23 01:54:35;;;;;;;9.13;3.90;;;;;;;12.08;62.20;98577.85;1334373;87;21085;-72
2022/06/23 01:56:52;;;;;;;4.22;3.75;;;;;;;12.04;62.32;98578.98;1333038;87;21015;-71
2022/06/23 01:59:16;;;;;;;7.15;3.87;;;;;;;12.01;62.41;98580.49;1332379;87;80835;-72
2022/06/23 02:01:21;;;;;;;9.05;4.17;;;;;;;11.98;62.46;98581.17;1335663;87;21590;-71
2022/06/23 02:03:25;;;;;;;5.03;3.65;;;;;;;11.93;62.60;98582.72;1332208;86;21109;-71
2022/06/23 02:05:39;;;;;;;9.10;4.50;;;;;;;11.90;62.63;98585.06;1330006;86;81585;-71
2022/06/23 02:07:44;;;;;;;5.70;4.30;;;;;;;11.87;62.74;98589.70;1332627;87;21080;-71
2022/06/23 02:09:54;;;;;;;7.08;4.00;;;;;;;11.82;62.86;98588.63;1333027;87;21601;-71
2022/06/23 02:11:55;;;;;;;4.05;3.70;;;;;;;11.80;62.92;98591.85;1332123;86;81488;-72
2022/06/23 02:14:16;;;;;;;5.12;3.98;;;;;;;11.79;63.01;98601.19;1329196;88;21102;-71
2022/06/23 02:16:28;;;;;;;8.98;4.00;;;;;;;11.76;62.97;98600.41;1327068;88;80821;-71
2022/06/23 02:18:53;;;;;;;7.42;3.92;;;;;;;11.73;63.13;98603.24;1326403;86;21387;-70
2022/06/23 02:21:04;;;;;;;5.17;3.92;;;;;;;11.73;63.23;98605.88;1327600;88;21075;-71
2022/06/23 02:23:30;;;;;;;6.25;4.30;;;;;;;11.69;63.26;98605.69;1325017;87;80674;-71
2022/06/23 02:25:34;;;;;;;9.68;4.30;;;;;;;11.64;63.31;98606.41;1316599;88;21121;-72
2022/06/23 02:27:44;;;;;;;10.38;4.35;;;;;;;11.60;63.38;98608.85;1317818;88;21126;-72
2022/06/23 02:29:52;;;;;;;9.68;4.03;;;;;;;11.58;63.46;98610.75;1343539;85;82020;-71
2022/06/23 02:31:57;;;;;;;8.00;4.42;;;;;;;11.58;63.60;98612.06;1398333;84;21007;-72
2022/06/23 02:34:02;;;;;;;4.30;3.95;;;;;;;11.58;63.62;98610.75;1397515;83;21013;-72
2022/06/23 02:36:21;;;;;;;4.40;4.00;;;;;;;11.57;63.62;98615.64;1400064;83;21042;-71
2022/06/23 02:38:38;;;;;;;5.72;4.05;;;;;;;11.55;63.62;98620.17;1389415;84;21104;-72
2022/06/23 02:40:42;;;;;;;7.53;3.70;;;;;;;11.53;63.73;98618.07;1406386;83;81553;-72
2022/06/23 02:42:46;;;;;;;5.75;3.98;;;;;;;11.50;63.77;98618.26;1427993;81;21159;-72
2022/06/23 02:44:53;;;;;;;5.05;4.05;;;;;;;11.48;63.81;98622.76;1429387;81;21161;-72
2022/06/23 02:47:10;;;;;;;6.25;4.20;;;;;;;11.47;63.83;98629.00;1395582;82;81286;-72
2022/06/23 02:49:32;;;;;;;16.05;4.55;;;;;;;11.47;63.95;98634.28;1428752;81;21042;-71
2022/06/23 02:51:52;;;;;;;11.68;4.55;;;;;;;11.46;64.06;98628.13;1428579;81;21094;-71
2022/06/23 02:54:00;;;;;;;13.15;4.10;;;;;;;11.48;64.18;98636.83;1393382;84;81361;-72
2022/06/23 02:56:10;;;;;;;7.20;3.95;;;;;;;11.50;64.21;98626.17;1395412;84;22348;-72
2022/06/23 02:58:21;;;;;;;4.00;3.70;;;;;;;11.54;64.24;98630.34;1392976;84;81559;-71
2022/06/23 03:00:25;;;;;;;5.40;4.08;;;;;;;11.59;64.26;98633.57;1392873;84;21614;-71
2022/06/23 03:02:42;;;;;;;5.05;3.85;;;;;;;11.62;64.30;98633.39;1394772;84;21112;-71
2022/06/23 03:04:52;;;;;;;8.65;3.33;;;;;;;11.65;64.27;98631.88;1392777;84;81553;-71
2022/06/23 03:07:09;;;;;;;5.33;4.10;;;;;;;11.66;64.34;98634.03;1393912;84;21508;-71
2022/06/23 03:09:38;;;;;;;6.62;3.60;;;;;;;11.67;64.41;98637.94;1393211;84;21103;-71
2022/06/23 03:11:55;;;;;;;21.37;4.92;;;;;;;11.70;64.44;98636.44;1393225;83;80689;-71
2022/06/23 03:13:59;;;;;;;10.28;4.12;;;;;;;11.75;64.46;98634.38;1396574;83;21564;-71
2022/06/23 03:16:09;;;;;;;12.85;4.22;;;;;;;11.80;64.55;98635.91;1398465;83;21045;-71
2022/06/23 03:18:17;;;;;;;14.17;4.23;;;;;;;11.82;64.50;98639.28;1399483;83;21599;-71
2022/06/23 03:20:25;;;;;;;21.40;4.42;;;;;;;11.87;64.53;98637.23;1400128;83;21618;-71
2022/06/23 03:22:42;;;;;;;8.30;4.28;;;;;;;11.92;64.55;98647.03;1401314;83;81488;-72
2022/06/23 03:25:05;;;;;;;13.28;4.22;;;;;;;11.97;64.63;98653.42;1410980;84;21101;-71
2022/06/23 03:27:09;;;;;;;11.88;4.62;;;;;;;12.03;64.69;98647.30;1411378;82;21033;-72
2022/06/23 03:29:32;;;;;;;10.55;4.53;;;;;;;12.08;64.67;98643.89;1321101;87;82323;-72
2022/06/23 03:31:43;;;;;;;5.70;4.22;;;;;;;12.15;64.72;98652.80;1266551;91;21586;-71
2022/06/23 03:33:48;;;;;;;15.18;4.08;;;;;;;12.21;64.74;98654.59;1269591;91;21122;-73
2022/06/23 03:35:58;;;;;;;7.50;3.62;;;;;;;12.28;64.78;98654.22;1268194;92;82109;-72
2022/06/23 03:38:03;;;;;;;10.50;4.17;;;;;;;12.33;64.73;98658.27;1267065;91;21961;-71
2022/06/23 03:42:37;;;;;;;18.85;4.83;;;;;;;12.42;64.83;98659.05;1263454;91;21284;-71
2022/06/23 03:45:05;;;;;;;7.62;4.10;;;;;;;12.48;64.82;98658.30;1265210;92;21661;-71
2022/06/23 03:47:14;;;;;;;16.32;4.37;;;;;;;12.54;64.85;98660.56;1263674;91;81800;-72
2022/06/23 03:49:42;;;;;;;20.02;3.90;;;;;;;12.62;64.84;98662.26;1268567;91;21147;-71
2022/06/23 03:51:50;;;;;;;13.72;4.03;;;;;;;12.68;64.85;98668.95;1270935;91;21086;-72
2022/06/23 03:53:55;;;;;;;13.25;4.17;;;;;;;12.73;64.90;98671.69;1266896;92;81578;-72
2022/06/23 03:56:00;;;;;;;9.08;4.08;;;;;;;12.80;64.88;98664.23;1267145;91;21077;-71
2022/06/23 03:58:04;;;;;;;8.40;3.62;;;;;;;12.83;64.86;98665.84;1260913;92;81777;-71
2022/06/23 04:00:38;;;;;;;23.47;4.55;;;;;;;12.91;64.69;98668.86;1270927;92;21091;-72
2022/06/23 04:02:43;;;;;;;27.95;4.50;;;;;;;12.99;64.65;98676.29;1269459;91;21598;-71
2022/06/23 04:04:52;;;;;;;19.40;4.08;;;;;;;13.07;64.59;98675.33;1265893;91;81711;-71
2022/06/23 04:06:53;;;;;;;9.98;4.33;;;;;;;13.13;64.60;98675.45;1382693;82;20996;-71
2022/06/23 04:09:01;;;;;;;10.90;4.30;;;;;;;13.17;64.50;98679.59;1448984;80;21615;-71
2022/06/23 04:11:43;;;;;;;27.10;4.03;;;;;;;13.23;64.47;98684.48;1448201;81;81647;-72
2022/06/23 04:13:18;;;;;;;19.73;4.22;;;;;;;13.28;64.50;98687.21;1440021;80;21084;-72
2022/06/23 04:15:26;;;;;;;16.00;4.15;;;;;;;13.34;64.53;98681.16;1420107;82;21267;-72
2022/06/23 04:17:31;;;;;;;14.35;4.47;;;;;;;13.39;64.52;98682.59;1415315;82;80747;-71
2022/06/23 04:19:33;;;;;;;15.32;4.90;;;;;;;13.45;64.46;98683.50;1418530;82;21079;-71
2022/06/23 04:21:34;;;;;;;26.97;4.45;;;;;;;13.51;64.48;98684.06;1400999;83;21008;-71
2022/06/23 04:23:38;;;;;;;33.13;5.15;;;;;;;13.57;64.49;98690.30;1419427;82;81586;-71
2022/06/23 04:25:49;;;;;;;47.53;5.45;;;;;;;13.61;64.46;98691.80;1403795;82;21033;-71
2022/06/23 04:27:53;;;;;;;52.83;6.22;;;;;;;13.67;64.51;98698.00;1420203;81;21099;-71
2022/06/23 04:29:57;;;;;;;22.62;5.25;;;;;;;13.72;64.50;98699.88;1419341;82;81772;-71
2022/06/23 04:32:14;;;;;;;25.90;5.87;;;;;;;13.78;64.54;98698.14;1421049;82;21046;-70
2022/06/23 04:34:22;;;;;;;35.90;5.45;;;;;;;13.86;64.47;98706.05;1419579;81;90440;-71
2022/06/23 04:36:27;;;;;;;29.85;4.72;;;;;;;13.98;64.44;98696.45;1420116;82;21067;-72
2022/06/23 04:38:34;;;;;;;16.55;4.25;;;;;;;14.07;64.34;98704.63;1421069;82;21035;-71
2022/06/23 04:40:48;;;;;;;39.13;5.30;;;;;;;14.16;64.36;98700.50;1420210;82;82145;-71
2022/06/23 04:42:57;;;;;;;19.40;4.25;;;;;;;14.27;64.22;98702.43;1422598;82;21084;-72
2022/06/23 04:45:25;;;;;;;18.75;3.98;;;;;;;14.37;64.30;98706.63;1421995;82;22282;-71
2022/06/23 04:47:31;;;;;;;16.70;4.83;;;;;;;14.46;64.17;98706.00;1418764;82;81982;-72
2022/06/23 04:49:41;;;;;;;6.30;3.85;;;;;;;14.56;64.06;98707.55;1421099;81;20993;-72
2022/06/23 04:51:55;;;;;;;15.45;4.30;;;;;;;14.66;64.03;98713.09;1420323;81;21060;-72
2022/06/23 04:53:59;;;;;;;28.05;4.35;;;;;;;14.75;63.92;98715.95;1420922;81;81457;-71
2022/06/23 04:56:10;;;;;;;13.60;4.83;;;;;;;14.86;63.89;98719.67;1421839;82;21021;-71
2022/06/23 04:58:15;;;;;;;17.55;4.30;;;;;;;14.93;63.82;98719.61;1386907;83;81057;-71
2022/06/23 05:00:26;;;;;;;20.20;4.70;;;;;;;15.02;63.93;98718.94;1420224;82;21051;-71
2022/06/23 05:02:30;;;;;;;30.82;5.40;;;;;;;15.08;63.91;98719.84;1402320;82;21020;-71
2022/06/23 05:04:41;;;;;;;37.80;5.08;;;;;;;15.15;63.96;98718.45;1421543;82;80835;-72
2022/06/23 05:06:45;;;;;;;11.15;4.20;;;;;;;15.22;63.84;98711.39;1420622;81;21055;-71
2022/06/23 05:08:47;;;;;;;27.45;5.05;;;;;;;15.32;63.80;98721.70;1422395;82;21026;-71
2022/06/23 05:10:54;;;;;;;13.20;4.90;;;;;;;15.39;63.76;98720.30;1420620;81;80994;-71
2022/06/23 05:12:59;;;;;;;18.77;4.60;;;;;;;15.46;63.67;98727.34;1421266;81;21331;-71
2022/06/23 05:15:19;;;;;;;25.75;4.35;;;;;;;15.52;63.65;98727.38;1438922;81;21510;-71
2022/06/23 05:17:23;;;;;;;25.62;4.45;;;;;;;15.59;63.67;98723.30;1443071;82;82056;-72
2022/06/23 05:19:31;;;;;;;32.03;4.55;;;;;;;15.77;63.55;98723.30;1443688;81;21045;-71
2022/06/23 05:21:41;;;;;;;15.80;4.55;;;;;;;15.77;63.55;98723.30;1444151;82;21152;-72
2022/06/23 05:23:53;;;;;;;28.62;3.87;;;;;;;15.86;63.50;98728.93;1437767;82;82008;-71
2022/06/23 05:25:58;;;;;;;15.45;4.22;;;;;;;15.94;63.46;98734.03;1442907;81;21034;-72
2022/06/23 05:28:03;;;;;;;17.17;3.92;;;;;;;16.02;63.55;98729.48;1441835;81;21026;-72
2022/06/23 05:30:26;;;;;;;8.93;3.83;;;;;;;16.13;63.62;98734.84;1442047;81;20991;-72
2022/06/23 05:32:52;;;;;;;8.70;3.80;;;;;;;16.25;63.33;98737.53;1443712;81;21036;-72
2022/06/23 05:35:08;;;;;;;13.40;3.90;;;;;;;16.37;63.33;98730.45;1442432;82;81022;-72
2022/06/23 05:37:18;;;;;;;14.93;4.12;;;;;;;16.44;63.12;98739.16;1443189;81;22772;-72
2022/06/23 05:39:23;;;;;;;10.05;3.58;;;;;;;16.51;63.01;98740.38;1443157;81;21798;-72
2022/06/23 05:41:31;;;;;;;11.45;4.05;;;;;;;16.58;62.88;98741.25;1443133;81;81569;-73
2022/06/23 05:43:37;;;;;;;8.10;3.20;;;;;;;16.68;62.92;98749.75;1441862;81;21074;-72
2022/06/23 05:45:45;;;;;;;21.85;3.58;;;;;;;16.80;62.64;98744.44;1443806;82;21040;-72
2022/06/23 05:47:46;;;;;;;8.30;3.15;;;;;;;16.92;62.61;98745.30;1443163;82;80858;-71
2022/06/23 05:49:54;;;;;;;10.60;3.22;;;;;;;17.02;62.35;98750.29;1444496;81;21043;-72
2022/06/23 05:52:07;;;;;;;11.05;3.42;;;;;;;17.11;62.13;98747.38;1443695;81;21120;-72
2022/06/23 05:54:15;;;;;;;9.43;2.90;;;;;;;17.24;62.09;98755.23;1443903;81;20972;-71
2022/06/23 05:56:35;;;;;;;4.67;3.25;;;;;;;17.34;61.88;98756.21;1443578;81;21030;-72
2022/06/23 05:58:41;;;;;;;14.60;3.02;;;;;;;17.43;61.74;98756.81;1381317;84;80479;-72
2022/06/23 06:01:01;;;;;;;19.07;3.08;;;;;;;17.55;61.71;98761.63;1442588;81;21055;-71
2022/06/23 06:03:24;;;;;;;3.37;2.90;;;;;;;17.68;61.59;98761.47;1441739;81;21091;-73
2022/06/23 06:05:35;;;;;;;10.55;2.90;;;;;;;17.82;61.37;98763.01;1441694;81;81242;-71
2022/06/23 06:07:39;;;;;;;12.53;3.12;;;;;;;17.94;61.16;98763.87;1443546;81;21024;-72
2022/06/23 06:09:40;;;;;;;23.50;4.60;;;;;;;18.02;61.04;98764.09;1443618;81;21036;-72
2022/06/23 06:11:45;;;;;;;19.67;3.30;;;;;;;18.09;60.75;98767.93;1443431;81;81792;-71
2022/06/23 06:13:46;;;;;;;18.05;2.83;;;;;;;18.18;60.89;98769.02;1440647;81;21046;-72
2022/06/23 06:15:53;;;;;;;24.52;2.98;;;;;;;18.30;60.56;98769.79;1447890;80;21024;-72
2022/06/23 06:17:58;;;;;;;13.98;2.60;;;;;;;18.40;60.38;98768.53;1448689;81;81828;-72
2022/06/23 06:20:03;;;;;;;13.22;2.98;;;;;;;18.47;60.27;98769.23;1449430;80;21023;-72
2022/06/23 06:22:14;;;;;;;10.32;2.87;;;;;;;18.53;59.92;98773.20;1418143;82;81513;-72
2022/06/23 06:24:17;;;;;;;;;;;;;;;18.61;59.87;98769.86;1419932;82;21099;-72
2022/06/23 06:26:21;;;;;;;10.65;3.00;;;;;;;18.69;59.65;98772.73;1396620;84;20115;-72
2022/06/23 06:28:26;;;;;;;13.38;2.40;;;;;;;18.76;59.51;98781.94;1383266;84;82242;-72
2022/06/23 06:30:34;;;;;;;13.98;2.60;;;;;;;18.85;59.06;98774.95;1384787;84;21057;-72
2022/06/23 06:32:38;;;;;;;13.62;2.87;;;;;;;18.95;59.04;98777.70;1446943;80;21160;-72
2022/06/23 06:34:43;;;;;;;17.42;2.77;;;;;;;19.04;58.50;98780.42;1445133;80;82215;-72
2022/06/23 06:36:47;;;;;;;18.40;2.72;;;;;;;19.11;58.35;98788.75;1447371;80;21140;-72
2022/06/23 06:38:48;;;;;;;18.65;2.72;;;;;;;19.20;58.31;98787.97;1449659;82;21008;-73
2022/06/23 06:40:54;;;;;;;21.97;2.70;;;;;;;19.25;57.94;98774.69;1445759;80;81025;-73
2022/06/23 06:43:02;;;;;;;37.60;3.12;;;;;;;19.38;58.06;98781.97;1417996;82;21519;-73
2022/06/23 06:45:07;;;;;;;12.50;2.87;;;;;;;19.49;58.07;98786.38;1418170;82;21047;-71
2022/06/23 06:47:14;;;;;;;13.58;3.12;;;;;;;19.61;58.06;98781.27;1447008;80;81795;-72
2022/06/23 06:49:19;;;;;;;8.38;2.22;;;;;;;19.67;57.54;98790.58;1448149;80;21201;-73
2022/06/23 06:51:23;;;;;;;15.88;2.77;;;;;;;19.71;57.50;98784.80;1448588;80;21074;-72
2022/06/23 06:53:37;;;;;;;34.92;3.08;;;;;;;19.75;57.18;98784.05;1451073;81;82026;-72
2022/06/23 06:55:42;;;;;;;21.37;3.22;;;;;;;19.83;57.31;98788.25;1449013;80;21121;-73
2022/06/23 06:57:51;;;;;;;17.00;2.40;;;;;;;19.90;57.24;98789.39;1447922;80;21034;-73
2022/06/23 07:00:08;;;;;;;25.85;3.42;;;;;;;20.05;57.12;98794.35;1447611;80;81890;-73
2022/06/23 07:02:25;;;;;;;32.85;2.98;;;;;;;20.13;56.85;98796.31;1447706;80;21778;-73
2022/06/23 07:04:33;;;;;;;18.67;2.92;;;;;;;20.20;56.58;98801.45;1444718;80;82333;-73
2022/06/23 07:06:44;;;;;;;22.80;2.25;;;;;;;20.28;56.44;98802.94;1447282;80;21028;-73
2022/06/23 07:08:48;;;;;;;34.45;3.45;;;;;;;20.34;56.20;98798.85;1396711;83;21003;-73
2022/06/23 07:10:56;;;;;;;21.35;2.17;;;;;;;20.37;55.83;98794.58;1417492;82;80631;-72
2022/06/23 07:13:01;;;;;;;14.18;2.33;;;;;;;20.40;55.79;98793.78;1406614;82;21489;-73
2022/06/23 07:15:05;;;;;;;12.70;2.87;;;;;;;20.47;55.70;98792.73;1448535;80;21353;-73
2022/06/23 07:17:13;;;;;;;10.32;2.00;;;;;;;20.55;56.05;98798.22;1446741;80;81492;-72
2022/06/23 07:19:23;;;;;;;7.70;2.47;;;;;;;20.63;55.36;98800.67;1446866;80;21004;-72
2022/06/23 07:21:40;;;;;;;6.05;2.00;;;;;;;20.67;55.08;98803.42;1449462;80;21464;-72
2022/06/23 07:23:54;;;;;;;13.48;1.95;;;;;;;20.67;55.26;98800.73;1419441;83;81648;-72
2022/06/23 07:25:59;;;;;;;6.65;1.90;;;;;;;20.74;54.43;98805.42;1384005;85;21060;-72
2022/06/23 07:28:04;;;;;;;17.07;2.17;;;;;;;20.83;54.15;98808.23;1447453;80;21060;-72
2022/06/23 07:30:13;;;;;;;6.55;1.62;;;;;;;20.88;53.94;98806.81;1449399;80;21171;-72
2022/06/23 07:32:27;;;;;;;12.75;1.85;;;;;;;20.91;53.89;98811.87;1449961;81;21312;-71
2022/06/23 07:34:31;;;;;;;8.30;1.60;;;;;;;21.00;53.31;98822.72;1448511;80;80802;-72
2022/06/23 07:36:39;;;;;;;2.87;1.70;;;;;;;21.06;53.07;98810.92;1448410;80;21083;-73
2022/06/23 07:38:46;;;;;;;3.22;2.02;;;;;;;21.12;53.32;98818.88;1449631;81;21068;-74
2022/06/23 07:41:01;;;;;;;8.03;1.82;;;;;;;21.22;53.46;98815.66;1446900;80;81705;-73
2022/06/23 07:43:09;;;;;;;2.75;1.80;;;;;;;21.30;53.23;98816.28;1375800;85;21087;-73
2022/06/23 07:45:23;;;;;;;4.42;2.00;;;;;;;21.38;52.71;98819.08;1375139;85;21060;-73
2022/06/23 07:47:24;;;;;;;5.22;2.40;;;;;;;21.42;52.42;98827.68;1375243;85;81369;-73
2022/06/23 07:49:26;;;;;;;3.30;1.92;;;;;;;21.43;52.57;98822.64;1376082;85;21501;-72
2022/06/23 07:51:27;;;;;;;8.30;2.30;;;;;;;21.46;52.44;98827.73;1348667;86;21045;-73
2022/06/23 07:53:32;;;;;;;6.03;2.10;;;;;;;21.47;52.32;98821.86;1347656;87;81544;-73
2022/06/23 07:55:42;;;;;;;13.98;2.25;;;;;;;21.49;52.19;98820.73;1347987;86;21075;-73
2022/06/23 07:57:43;;;;;;;14.23;2.17;;;;;;;21.54;51.78;98823.82;1349728;86;21051;-73
2022/06/23 07:59:50;;;;;;;3.67;1.90;;;;;;;21.57;51.60;98826.23;1340960;87;81531;-72
2022/06/23 08:01:55;;;;;;;6.17;1.90;;;;;;;21.62;51.64;98826.28;1340776;87;21029;-74
2022/06/23 08:04:05;;;;;;;12.53;1.90;;;;;;;21.67;51.07;98828.86;1339593;87;21067;-73
2022/06/23 08:06:10;;;;;;;14.68;1.82;;;;;;;21.71;50.92;98830.73;1331613;87;21023;-73
2022/06/23 08:08:15;;;;;;;9.10;2.00;;;;;;;21.77;50.27;98826.13;1339246;87;21103;-73
2022/06/23 08:10:25;;;;;;;2.83;1.70;;;;;;;21.65;50.51;98808.55;1335953;87;81641;-72
2022/06/23 08:16:49;;;;;;;7.12;1.65;;;;;;;21.90;50.40;98826.63;1351592;86;21118;-72
2022/06/23 08:17:01;;;;;;;1.80;1.60;;;;;;;21.95;50.21;98827.51;1356331;84;81603;-72
2022/06/23 08:19:09;;;;;;;26.95;2.22;;;;;;;21.98;49.86;98822.34;1378007;84;22552;-73
2022/06/23 08:21:20;;;;;;;12.47;2.17;;;;;;;22.08;49.76;98833.84;1440584;81;21087;-73
2022/06/23 08:23:23;;;;;;;4.83;1.80;;;;;;;22.27;48.95;98835.56;1449259;80;80707;-72
2022/06/23 08:25:24;;;;;;;9.18;1.80;;;;;;;22.41;49.21;98835.55;1452317;80;20999;-72
2022/06/23 08:27:30;;;;;;;4.80;1.60;;;;;;;22.50;49.20;98835.98;1452712;80;21528;-72
2022/06/23 08:29:51;;;;;;;2.62;1.80;;;;;;;22.59;48.88;98832.86;1433770;82;81470;-73
2022/06/23 08:31:53;;;;;;;4.55;1.57;;;;;;;22.70;49.12;98832.62;1450107;80;21059;-73
2022/06/23 08:33:55;;;;;;;7.20;1.75;;;;;;;22.94;48.65;98835.14;1449430;80;21495;-72
2022/06/23 08:35:57;;;;;;;4.00;1.75;;;;;;;23.07;48.51;98826.69;1450802;80;80467;-73
2022/06/23 08:38:23;;;;;;;13.10;1.82;;;;;;;23.26;48.69;98825.64;1451183;80;21023;-73
2022/06/23 08:41:01;;;;;;;9.75;1.80;;;;;;;23.40;48.56;98828.23;1449123;79;80837;-72
2022/06/23 08:43:21;;;;;;;2.67;1.67;;;;;;;23.58;47.94;98829.50;1451471;80;21027;-73
2022/06/23 08:45:26;;;;;;;7.55;1.80;;;;;;;23.68;47.40;98836.13;1451354;80;21062;-73
2022/06/23 08:47:30;;;;;;;4.10;1.67;;;;;;;23.71;47.12;98835.80;1448524;80;80557;-72
2022/06/23 08:49:38;;;;;;;15.72;2.58;;;;;;;23.79;46.87;98838.52;1449631;80;21307;-73
2022/06/23 08:51:55;;;;;;;16.48;2.12;;;;;;;23.82;46.75;98830.62;1451072;80;21091;-73
2022/06/23 08:54:11;;;;;;;15.00;1.60;;;;;;;23.86;46.45;98832.83;1449937;80;80685;-72
2022/06/23 08:56:16;;;;;;;8.60;1.55;;;;;;;24.01;46.78;98839.80;1448508;80;21094;-72
2022/06/23 08:58:27;;;;;;;12.68;1.80;;;;;;;24.11;46.29;98830.23;1448780;80;81730;-73
2022/06/23 09:00:31;;;;;;;31.68;2.98;;;;;;;24.20;45.95;98830.58;1448772;80;21038;-72
2022/06/23 09:02:39;;;;;;;5.62;2.02;;;;;;;24.35;46.00;98835.33;1452116;80;21047;-73
2022/06/23 09:04:46;;;;;;;2.95;2.15;;;;;;;24.48;45.83;98839.73;1422341;82;80570;-73
2022/06/23 09:07:00;;;;;;;2.75;1.77;;;;;;;24.57;45.63;98844.09;1449451;80;21114;-73
2022/06/23 09:09:27;;;;;;;10.38;1.62;;;;;;;24.55;45.51;98842.09;1453150;80;20987;-73
2022/06/23 09:11:38;;;;;;;3.60;1.32;;;;;;;24.54;45.30;98845.79;1449660;80;81649;-73
2022/06/23 09:13:45;;;;;;;6.95;1.55;;;;;;;24.57;45.08;98849.48;1450034;80;21540;-72
2022/06/23 09:15:59;;;;;;;3.83;1.42;;;;;;;24.64;45.18;98843.80;1431234;80;21046;-73
2022/06/23 09:18:17;;;;;;;4.08;1.70;;;;;;;24.72;44.71;98842.13;1447613;80;81278;-73
2022/06/23 09:20:24;;;;;;;11.03;2.30;;;;;;;24.78;44.62;98832.01;1447304;80;21569;-73
2022/06/23 09:22:44;;;;;;;14.85;2.20;;;;;;;24.94;44.67;98835.22;1418233;82;80952;-73
2022/06/23 09:24:51;;;;;;;17.23;1.95;;;;;;;25.13;45.04;98833.98;1418951;82;21052;-73
2022/06/23 09:27:16;;;;;;;17.15;2.50;;;;;;;25.33;44.54;98832.63;1393781;84;21032;-73
2022/06/23 09:29:55;;;;;;;36.13;2.70;;;;;;;25.44;44.28;98831.42;1391874;85;81723;-73
2022/06/23 09:31:59;;;;;;;9.85;2.33;;;;;;;25.56;44.15;98829.20;1396033;83;22141;-73
2022/06/23 09:34:21;;;;;;;17.40;2.25;;;;;;;25.53;43.39;98828.70;1418348;82;21143;-73
2022/06/23 09:36:49;;;;;;;9.20;2.30;;;;;;;25.36;43.91;98826.05;1419409;83;21013;-73
2022/06/23 09:39:09;;;;;;;26.33;2.65;;;;;;;25.13;44.00;98830.80;1419101;82;21068;-73
2022/06/23 09:41:20;;;;;;;21.63;3.23;;;;;;;24.89;43.74;98833.01;1413383;82;80870;-75
2022/06/23 09:43:22;;;;;;;;;;;;;;;24.69;43.75;98841.09;1420441;82;21061;-73
2022/06/23 09:45:48;;;;;;;12.05;1.90;;;;;;;24.59;43.71;98838.05;1418203;82;20180;-73
2022/06/23 09:48:05;;;;;;;2.30;2.00;;;;;;;24.65;43.75;98842.79;1331050;88;81122;-74
2022/06/23 09:50:16;;;;;;;5.62;2.02;;;;;;;24.78;44.19;98830.18;1349088;86;21613;-74
2022/06/23 09:52:26;;;;;;;17.23;2.30;;;;;;;24.77;43.78;98834.36;1349495;86;80753;-74
2022/06/23 09:54:36;;;;;;;8.50;2.15;;;;;;;24.64;43.26;98847.00;1351433;87;20988;-72
2022/06/23 09:56:57;;;;;;;11.40;1.62;;;;;;;24.41;42.81;98838.69;1350474;86;21051;-74
2022/06/23 09:59:20;;;;;;;7.47;2.15;;;;;;;24.26;43.49;98841.22;1349227;85;81693;-72
2022/06/23 10:01:25;;;;;;;6.28;1.60;;;;;;;24.10;43.20;98839.31;1347105;86;21129;-71
2022/06/23 10:03:52;;;;;;;8.45;1.75;;;;;;;24.16;43.37;98842.71;1331647;87;21047;-72
2022/06/23 10:06:12;;;;;;;10.63;1.35;;;;;;;24.24;42.66;98833.27;1353713;85;81533;-72
2022/06/23 10:08:23;;;;;;;5.53;2.00;;;;;;;24.21;42.45;98839.00;1354392;86;21053;-71
2022/06/23 10:10:34;;;;;;;5.95;1.27;;;;;;;24.13;42.48;98842.53;1354801;86;80863;-72
2022/06/23 10:12:39;;;;;;;;;;;;;;;24.23;42.74;98838.34;1354529;86;21054;-72
2022/06/23 10:14:50;;;;;;;1.45;1.20;;;;;;;24.47;41.54;98839.39;1331172;88;20232;-72